This is the latest recevied weather packets stored in our database for station/object OK1TBF-6. If no packets are shown the sender has not sent any weather packets the latest 10 day(s).
| Time | Temp. | Humidity | Pressure | Rain* | Wind** | Luminosity | Snow |
|---|---|---|---|---|---|---|---|
| 1777333854 | 7.78° C | 51% | 1011.7 hPa | 0 mm | - | - | - |
| 1777329052 | 9.44° C | 44% | 1011.4 hPa | 0 mm | - | - | - |
| 1777328752 | 9.44° C | 44% | 1011.4 hPa | 0 mm | - | - | - |
| 1777318852 | 10.56° C | 42% | 1011.7 hPa | 0 mm | - | - | - |
| 1777315251 | 11.67° C | 43% | 1011.4 hPa | 0 mm | - | - | - |
| 1777314651 | 11.67° C | 40% | 1011.5 hPa | 0 mm | - | - | - |
| 1777313149 | 11.67° C | 42% | 1011.2 hPa | 0 mm | - | - | - |
| 1777312850 | 12.22° C | 41% | 1011.1 hPa | 0 mm | - | - | - |
| 1777311351 | 13.33° C | 40% | 1011 hPa | 0 mm | - | - | - |
| 1777310449 | 13.89° C | 36% | 1010.9 hPa | 0 mm | - | - | - |
| 1777308649 | 13.89° C | 35% | 1010.9 hPa | 0 mm | - | - | - |
| 1777307749 | 13.89° C | 35% | 1011.1 hPa | 0 mm | - | - | - |
| 1777305649 | 14.44° C | 33% | 1011.2 hPa | 0 mm | - | - | - |
| 1777305049 | 13.89° C | 35% | 1011.3 hPa | 0 mm | - | - | - |
| 1777301148 | 15.56° C | 31% | 1011.8 hPa | 0 mm | - | - | - |
| 1777299048 | 14.44° C | 35% | 1011.9 hPa | 0 mm | - | - | - |
| 1777298748 | 14.44° C | 33% | 1012 hPa | 0 mm | - | - | - |
| 1777295448 | 13.89° C | 35% | 1012.4 hPa | 0 mm | - | - | - |
| 1777294248 | 15° C | 36% | 1012.4 hPa | 0 mm | - | - | - |
| 1777293647 | 14.44° C | 33% | 1012.5 hPa | 0 mm | - | - | - |
| 1777292448 | 13.33° C | 36% | 1012.7 hPa | 0 mm | - | - | - |
| 1777292147 | 13.33° C | 35% | 1012.8 hPa | 0 mm | - | - | - |
| 1777290946 | 13.33° C | 35% | 1013.1 hPa | 0 mm | - | - | - |
| 1777290646 | 13.33° C | 37% | 1013.1 hPa | 0 mm | - | - | - |
| 1777289147 | 12.22° C | 37% | 1013.2 hPa | 0 mm | - | - | - |
* Rain latest hour (hover to see other rain measurements)
** Current wind speed in m/s (hover to see current wind gust speed)